sensor_id;sensor_type;location;lat;lon;timestamp;pressure;altitude;pressure_sealevel;temperature;humidity
21300;BME280;10809;49.476;11.016;2022-08-01T00:02:32;98070.91;;;22.96;42.99
21300;BME280;10809;49.476;11.016;2022-08-01T00:05:04;98074.94;;;22.92;43.30
21300;BME280;10809;49.476;11.016;2022-08-01T00:07:36;98084.25;;;22.89;43.10
21300;BME280;10809;49.476;11.016;2022-08-01T00:10:10;98081.72;;;22.88;42.95
21300;BME280;10809;49.476;11.016;2022-08-01T00:12:44;98084.75;;;22.85;42.84
21300;BME280;10809;49.476;11.016;2022-08-01T00:15:17;98087.78;;;22.82;42.93
21300;BME280;10809;49.476;11.016;2022-08-01T00:17:48;98084.38;;;22.80;42.97
21300;BME280;10809;49.476;11.016;2022-08-01T00:20:21;98086.44;;;22.78;43.07
21300;BME280;10809;49.476;11.016;2022-08-01T00:22:51;98085.75;;;22.76;43.17
21300;BME280;10809;49.476;11.016;2022-08-01T00:25:25;98079.00;;;22.72;42.92
21300;BME280;10809;49.476;11.016;2022-08-01T00:27:58;98088.09;;;22.71;42.93
21300;BME280;10809;49.476;11.016;2022-08-01T00:30:28;98089.97;;;22.70;43.22
21300;BME280;10809;49.476;11.016;2022-08-01T00:32:59;98090.44;;;22.66;43.22
21300;BME280;10809;49.476;11.016;2022-08-01T00:35:32;98087.06;;;22.64;43.05
21300;BME280;10809;49.476;11.016;2022-08-01T00:38:02;98086.38;;;22.62;43.41
21300;BME280;10809;49.476;11.016;2022-08-01T00:40:36;98089.25;;;22.60;43.41
21300;BME280;10809;49.476;11.016;2022-08-01T00:43:06;98088.72;;;22.57;43.55
21300;BME280;10809;49.476;11.016;2022-08-01T00:45:40;98086.19;;;22.55;43.75
21300;BME280;10809;49.476;11.016;2022-08-01T00:48:11;98090.09;;;22.53;43.76
21300;BME280;10809;49.476;11.016;2022-08-01T00:50:44;98084.00;;;22.51;43.71
21300;BME280;10809;49.476;11.016;2022-08-01T00:53:18;98093.28;;;22.48;43.66
21300;BME280;10809;49.476;11.016;2022-08-01T00:55:52;98088.22;;;22.45;43.85
21300;BME280;10809;49.476;11.016;2022-08-01T00:58:23;98090.38;;;22.42;43.77
21300;BME280;10809;49.476;11.016;2022-08-01T01:00:56;98086.16;;;22.39;43.93
21300;BME280;10809;49.476;11.016;2022-08-01T01:03:27;98095.44;;;22.37;44.13
21300;BME280;10809;49.476;11.016;2022-08-01T01:06:20;98095.78;;;22.34;43.80
21300;BME280;10809;49.476;11.016;2022-08-01T01:11:48;98095.38;;;22.29;43.99
21300;BME280;10809;49.476;11.016;2022-08-01T01:14:45;98102.13;;;22.25;44.36
21300;BME280;10809;49.476;11.016;2022-08-01T01:17:28;98100.56;;;22.22;44.39
21300;BME280;10809;49.476;11.016;2022-08-01T01:20:03;98104.47;;;22.20;44.52
21300;BME280;10809;49.476;11.016;2022-08-01T01:22:57;98107.63;;;22.15;44.17
21300;BME280;10809;49.476;11.016;2022-08-01T01:28:17;98105.44;;;22.11;44.62
21300;BME280;10809;49.476;11.016;2022-08-01T01:30:51;98105.75;;;22.08;45.18
21300;BME280;10809;49.476;11.016;2022-08-01T01:33:25;98107.06;;;22.04;45.48
21300;BME280;10809;49.476;11.016;2022-08-01T01:36:01;98102.00;;;22.01;45.39
21300;BME280;10809;49.476;11.016;2022-08-01T01:38:36;98106.72;;;21.99;45.40
21300;BME280;10809;49.476;11.016;2022-08-01T01:41:09;98105.34;;;21.95;45.34
21300;BME280;10809;49.476;11.016;2022-08-01T01:43:41;98110.06;;;21.93;45.32
21300;BME280;10809;49.476;11.016;2022-08-01T01:46:15;98106.69;;;21.91;45.06
21300;BME280;10809;49.476;11.016;2022-08-01T01:48:47;98112.22;;;21.89;45.21
21300;BME280;10809;49.476;11.016;2022-08-01T01:51:21;98113.41;;;21.87;45.46
21300;BME280;10809;49.476;11.016;2022-08-01T01:53:53;98110.88;;;21.85;45.34
21300;BME280;10809;49.476;11.016;2022-08-01T01:56:26;98114.56;;;21.84;45.67
21300;BME280;10809;49.476;11.016;2022-08-01T01:59:00;98111.19;;;21.82;45.28
21300;BME280;10809;49.476;11.016;2022-08-01T02:01:32;98117.56;;;21.81;45.66
21300;BME280;10809;49.476;11.016;2022-08-01T02:04:05;98119.44;;;21.81;45.54
21300;BME280;10809;49.476;11.016;2022-08-01T02:06:37;98117.72;;;21.80;45.58
21300;BME280;10809;49.476;11.016;2022-08-01T02:09:08;98122.28;;;21.79;45.37
21300;BME280;10809;49.476;11.016;2022-08-01T02:11:39;98128.50;;;21.80;45.38
21300;BME280;10809;49.476;11.016;2022-08-01T02:14:14;98129.38;;;21.80;45.46
21300;BME280;10809;49.476;11.016;2022-08-01T02:16:48;98138.31;;;21.81;45.10
21300;BME280;10809;49.476;11.016;2022-08-01T02:19:19;98140.84;;;21.82;45.12
21300;BME280;10809;49.476;11.016;2022-08-01T02:22:01;98131.91;;;21.82;44.92
21300;BME280;10809;49.476;11.016;2022-08-01T02:27:27;98139.50;;;21.86;44.95
21300;BME280;10809;49.476;11.016;2022-08-01T02:30:03;98141.19;;;21.87;45.04
21300;BME280;10809;49.476;11.016;2022-08-01T02:32:48;98145.44;;;21.90;45.09
21300;BME280;10809;49.476;11.016;2022-08-01T02:35:29;98147.13;;;21.91;44.72
21300;BME280;10809;49.476;11.016;2022-08-01T02:38:03;98149.81;;;21.91;45.08
21300;BME280;10809;49.476;11.016;2022-08-01T02:40:37;98144.25;;;21.92;45.04
21300;BME280;10809;49.476;11.016;2022-08-01T02:43:12;98153.22;;;21.93;45.11
21300;BME280;10809;49.476;11.016;2022-08-01T02:45:48;98155.91;;;21.93;45.11
21300;BME280;10809;49.476;11.016;2022-08-01T02:48:22;98164.97;;;21.92;45.17
21300;BME280;10809;49.476;11.016;2022-08-01T02:50:57;98160.59;;;21.91;45.13
21300;BME280;10809;49.476;11.016;2022-08-01T02:53:33;98154.50;;;21.89;45.18
21300;BME280;10809;49.476;11.016;2022-08-01T02:56:07;98162.75;;;21.87;45.49
21300;BME280;10809;49.476;11.016;2022-08-01T02:58:39;98166.63;;;21.85;45.80
21300;BME280;10809;49.476;11.016;2022-08-01T03:01:11;98166.94;;;21.82;45.68
21300;BME280;10809;49.476;11.016;2022-08-01T03:03:43;98151.25;;;21.77;45.91
21300;BME280;10809;49.476;11.016;2022-08-01T03:06:14;98167.75;;;21.74;45.71
21300;BME280;10809;49.476;11.016;2022-08-01T03:08:46;98162.81;;;21.70;45.67
21300;BME280;10809;49.476;11.016;2022-08-01T03:11:17;98152.53;;;21.65;45.74
21300;BME280;10809;49.476;11.016;2022-08-01T03:13:50;98159.03;;;21.63;45.80
21300;BME280;10809;49.476;11.016;2022-08-01T03:16:24;98161.22;;;21.59;45.61
21300;BME280;10809;49.476;11.016;2022-08-01T03:18:56;98157.97;;;21.56;45.34
21300;BME280;10809;49.476;11.016;2022-08-01T03:21:29;98161.84;;;21.53;45.99
21300;BME280;10809;49.476;11.016;2022-08-01T03:24:02;98164.84;;;21.50;45.94
21300;BME280;10809;49.476;11.016;2022-08-01T03:26:35;98165.00;;;21.48;45.59
21300;BME280;10809;49.476;11.016;2022-08-01T03:29:16;98164.31;;;21.46;45.92
21300;BME280;10809;49.476;11.016;2022-08-01T03:31:47;98166.31;;;21.44;46.04
21300;BME280;10809;49.476;11.016;2022-08-01T03:34:18;98163.59;;;21.44;46.19
21300;BME280;10809;49.476;11.016;2022-08-01T03:37:08;98166.63;;;21.41;45.97
21300;BME280;10809;49.476;11.016;2022-08-01T03:39:47;98168.47;;;21.41;46.05
21300;BME280;10809;49.476;11.016;2022-08-01T03:42:20;98175.72;;;21.40;46.33
21300;BME280;10809;49.476;11.016;2022-08-01T03:44:54;98171.34;;;21.39;46.42
21300;BME280;10809;49.476;11.016;2022-08-01T03:47:31;98178.72;;;21.37;46.12
21300;BME280;10809;49.476;11.016;2022-08-01T03:50:05;98179.72;;;21.36;46.26
21300;BME280;10809;49.476;11.016;2022-08-01T03:52:41;98185.94;;;21.37;46.65
21300;BME280;10809;49.476;11.016;2022-08-01T03:55:15;98194.34;;;21.34;46.82
21300;BME280;10809;49.476;11.016;2022-08-01T03:57:47;98192.66;;;21.33;46.97
21300;BME280;10809;49.476;11.016;2022-08-01T04:00:18;98193.81;;;21.30;47.17
21300;BME280;10809;49.476;11.016;2022-08-01T04:02:52;98197.66;;;21.28;47.00
21300;BME280;10809;49.476;11.016;2022-08-01T04:05:29;98190.88;;;21.24;47.04
21300;BME280;10809;49.476;11.016;2022-08-01T04:07:59;98190.34;;;21.20;47.46
21300;BME280;10809;49.476;11.016;2022-08-01T04:10:32;98188.97;;;21.16;47.37
21300;BME280;10809;49.476;11.016;2022-08-01T04:13:05;98191.97;;;21.13;47.43
21300;BME280;10809;49.476;11.016;2022-08-01T04:15:35;98200.34;;;21.10;47.71
21300;BME280;10809;49.476;11.016;2022-08-01T04:18:09;98192.59;;;21.07;47.72
21300;BME280;10809;49.476;11.016;2022-08-01T04:20:39;98188.19;;;21.06;47.90
21300;BME280;10809;49.476;11.016;2022-08-01T04:23:11;98193.56;;;21.06;47.45
21300;BME280;10809;49.476;11.016;2022-08-01T04:25:42;98198.13;;;21.06;48.23
21300;BME280;10809;49.476;11.016;2022-08-01T04:28:18;98203.50;;;21.06;48.23
21300;BME280;10809;49.476;11.016;2022-08-01T04:30:52;98209.72;;;21.06;48.38
21300;BME280;10809;49.476;11.016;2022-08-01T04:33:25;98213.13;;;21.08;48.50
21300;BME280;10809;49.476;11.016;2022-08-01T04:35:58;98210.28;;;21.10;48.52
21300;BME280;10809;49.476;11.016;2022-08-01T04:38:31;98216.06;;;21.15;48.25
21300;BME280;10809;49.476;11.016;2022-08-01T04:41:02;98216.75;;;21.17;48.55
21300;BME280;10809;49.476;11.016;2022-08-01T04:43:33;98219.13;;;21.20;48.41
21300;BME280;10809;49.476;11.016;2022-08-01T04:46:05;98223.22;;;21.24;48.57
21300;BME280;10809;49.476;11.016;2022-08-01T04:48:37;98226.44;;;21.27;48.51
21300;BME280;10809;49.476;11.016;2022-08-01T04:51:13;98227.13;;;21.29;48.40
21300;BME280;10809;49.476;11.016;2022-08-01T04:53:45;98229.50;;;21.32;48.72
21300;BME280;10809;49.476;11.016;2022-08-01T04:56:19;98233.59;;;21.36;48.47
21300;BME280;10809;49.476;11.016;2022-08-01T04:58:50;98235.13;;;21.39;48.52
21300;BME280;10809;49.476;11.016;2022-08-01T05:01:41;98239.19;;;21.43;48.39
21300;BME280;10809;49.476;11.016;2022-08-01T05:04:11;98236.19;;;21.46;48.28
21300;BME280;10809;49.476;11.016;2022-08-01T05:06:41;98241.28;;;21.49;48.40
21300;BME280;10809;49.476;11.016;2022-08-01T05:09:12;98238.28;;;21.52;48.25
21300;BME280;10809;49.476;11.016;2022-08-01T05:11:42;98241.66;;;21.54;48.73
21300;BME280;10809;49.476;11.016;2022-08-01T05:14:12;98248.59;;;21.57;48.45
21300;BME280;10809;49.476;11.016;2022-08-01T05:16:46;98243.91;;;21.59;48.46
21300;BME280;10809;49.476;11.016;2022-08-01T05:19:16;98243.59;;;21.62;48.49
21300;BME280;10809;49.476;11.016;2022-08-01T05:21:49;98253.09;;;21.66;48.90
21300;BME280;10809;49.476;11.016;2022-08-01T05:24:19;98256.31;;;21.69;48.79
21300;BME280;10809;49.476;11.016;2022-08-01T05:26:50;98248.06;;;21.71;48.31
21300;BME280;10809;49.476;11.016;2022-08-01T05:29:20;98250.28;;;21.75;48.67
21300;BME280;10809;49.476;11.016;2022-08-01T05:31:54;98249.00;;;21.79;48.34
21300;BME280;10809;49.476;11.016;2022-08-01T05:34:24;98249.50;;;21.83;48.72
21300;BME280;10809;49.476;11.016;2022-08-01T05:37:04;98259.97;;;21.86;48.75
21300;BME280;10809;49.476;11.016;2022-08-01T05:39:34;98252.44;;;21.89;48.65
21300;BME280;10809;49.476;11.016;2022-08-01T05:42:05;98254.81;;;21.92;49.04
21300;BME280;10809;49.476;11.016;2022-08-01T05:44:35;98253.66;;;21.95;48.89
21300;BME280;10809;49.476;11.016;2022-08-01T05:47:09;98252.34;;;21.99;49.13
21300;BME280;10809;49.476;11.016;2022-08-01T05:49:39;98259.09;;;22.03;49.25
21300;BME280;10809;49.476;11.016;2022-08-01T05:52:10;98253.41;;;22.06;48.91
21300;BME280;10809;49.476;11.016;2022-08-01T05:54:40;98252.06;;;22.10;48.99
21300;BME280;10809;49.476;11.016;2022-08-01T05:57:11;98253.63;;;22.12;49.11
21300;BME280;10809;49.476;11.016;2022-08-01T05:59:41;98254.13;;;22.16;48.66
21300;BME280;10809;49.476;11.016;2022-08-01T06:02:11;98257.50;;;22.18;48.62
21300;BME280;10809;49.476;11.016;2022-08-01T06:04:42;98251.97;;;22.19;48.77
21300;BME280;10809;49.476;11.016;2022-08-01T06:07:12;98246.25;;;22.22;48.70
21300;BME280;10809;49.476;11.016;2022-08-01T06:09:42;98246.09;;;22.24;48.83
21300;BME280;10809;49.476;11.016;2022-08-01T06:12:13;98255.56;;;22.28;48.95
21300;BME280;10809;49.476;11.016;2022-08-01T06:14:43;98255.25;;;22.31;48.99
21300;BME280;10809;49.476;11.016;2022-08-01T06:17:13;98251.41;;;22.33;49.15
21300;BME280;10809;49.476;11.016;2022-08-01T06:19:44;98256.50;;;22.36;48.91
21300;BME280;10809;49.476;11.016;2022-08-01T06:22:14;98266.81;;;22.41;49.06
21300;BME280;10809;49.476;11.016;2022-08-01T06:24:44;98273.56;;;22.45;49.01
21300;BME280;10809;49.476;11.016;2022-08-01T06:27:15;98268.69;;;22.48;49.00
21300;BME280;10809;49.476;11.016;2022-08-01T06:29:45;98271.06;;;22.51;48.87
21300;BME280;10809;49.476;11.016;2022-08-01T06:32:15;98274.31;;;22.55;49.11
21300;BME280;10809;49.476;11.016;2022-08-01T06:34:46;98280.38;;;22.57;49.01
21300;BME280;10809;49.476;11.016;2022-08-01T06:37:16;98276.53;;;22.59;48.49
21300;BME280;10809;49.476;11.016;2022-08-01T06:39:52;98272.13;;;22.58;48.69
21300;BME280;10809;49.476;11.016;2022-08-01T06:42:23;98271.28;;;22.58;48.80
21300;BME280;10809;49.476;11.016;2022-08-01T06:44:57;98281.22;;;22.57;48.59
21300;BME280;10809;49.476;11.016;2022-08-01T06:47:27;98275.81;;;22.57;48.66
21300;BME280;10809;49.476;11.016;2022-08-01T06:50:01;98279.53;;;22.56;48.66
21300;BME280;10809;49.476;11.016;2022-08-01T06:52:32;98275.28;;;22.54;49.07
21300;BME280;10809;49.476;11.016;2022-08-01T06:55:03;98282.41;;;22.55;48.80
21300;BME280;10809;49.476;11.016;2022-08-01T06:57:34;98286.09;;;22.54;49.06
21300;BME280;10809;49.476;11.016;2022-08-01T07:00:06;98286.09;;;22.54;48.93
21300;BME280;10809;49.476;11.016;2022-08-01T07:02:39;98286.09;;;22.54;48.97
21300;BME280;10809;49.476;11.016;2022-08-01T07:05:09;98279.72;;;22.55;49.26
21300;BME280;10809;49.476;11.016;2022-08-01T07:07:40;98285.59;;;22.58;49.25
21300;BME280;10809;49.476;11.016;2022-08-01T07:10:13;98288.16;;;22.60;49.19
21300;BME280;10809;49.476;11.016;2022-08-01T07:12:46;98285.97;;;22.63;49.16
21300;BME280;10809;49.476;11.016;2022-08-01T07:15:17;98287.38;;;22.67;49.04
21300;BME280;10809;49.476;11.016;2022-08-01T07:17:48;98290.56;;;22.71;49.14
21300;BME280;10809;49.476;11.016;2022-08-01T07:20:18;98285.53;;;22.76;49.75
21300;BME280;10809;49.476;11.016;2022-08-01T07:22:52;98281.50;;;22.80;49.28
21300;BME280;10809;49.476;11.016;2022-08-01T07:25:22;98284.56;;;22.85;49.36
21300;BME280;10809;49.476;11.016;2022-08-01T07:27:52;98282.41;;;22.88;49.26
21300;BME280;10809;49.476;11.016;2022-08-01T07:30:23;98284.59;;;22.93;49.08
21300;BME280;10809;49.476;11.016;2022-08-01T07:33:00;98274.00;;;22.99;49.33
21300;BME280;10809;49.476;11.016;2022-08-01T07:35:33;98274.38;;;23.04;49.22
21300;BME280;10809;49.476;11.016;2022-08-01T07:38:05;98280.81;;;23.11;49.12
21300;BME280;10809;49.476;11.016;2022-08-01T07:40:35;98281.84;;;23.19;49.70
21300;BME280;10809;49.476;11.016;2022-08-01T07:43:06;98278.16;;;23.28;49.81
21300;BME280;10809;49.476;11.016;2022-08-01T07:45:36;98278.84;;;23.38;49.47
21300;BME280;10809;49.476;11.016;2022-08-01T07:48:07;98278.88;;;23.46;48.99
21300;BME280;10809;49.476;11.016;2022-08-01T07:50:40;98282.41;;;23.54;48.91
21300;BME280;10809;49.476;11.016;2022-08-01T07:53:10;98286.97;;;23.62;48.77
21300;BME280;10809;49.476;11.016;2022-08-01T07:55:44;98287.88;;;23.70;48.64
21300;BME280;10809;49.476;11.016;2022-08-01T07:58:15;98286.19;;;23.77;48.25
21300;BME280;10809;49.476;11.016;2022-08-01T08:00:46;98284.69;;;23.83;48.05
21300;BME280;10809;49.476;11.016;2022-08-01T08:03:16;98294.84;;;23.89;47.93
21300;BME280;10809;49.476;11.016;2022-08-01T08:05:47;98290.59;;;23.94;47.71
21300;BME280;10809;49.476;11.016;2022-08-01T08:08:17;98290.25;;;23.97;48.06
21300;BME280;10809;49.476;11.016;2022-08-01T08:10:48;98299.19;;;24.06;48.00
21300;BME280;10809;49.476;11.016;2022-08-01T08:13:18;98291.59;;;24.17;48.35
21300;BME280;10809;49.476;11.016;2022-08-01T08:15:49;98295.00;;;24.35;47.85
21300;BME280;10809;49.476;11.016;2022-08-01T08:18:19;98280.56;;;24.51;47.83
21300;BME280;10809;49.476;11.016;2022-08-01T08:20:58;98286.78;;;24.67;47.68
21300;BME280;10809;49.476;11.016;2022-08-01T08:23:29;98288.97;;;24.80;47.14
21300;BME280;10809;49.476;11.016;2022-08-01T08:26:18;98282.00;;;24.94;47.33
21300;BME280;10809;49.476;11.016;2022-08-01T08:28:48;98279.38;;;25.08;47.13
21300;BME280;10809;49.476;11.016;2022-08-01T08:31:21;98278.44;;;25.24;46.87
21300;BME280;10809;49.476;11.016;2022-08-01T08:33:52;98283.66;;;25.33;46.22
21300;BME280;10809;49.476;11.016;2022-08-01T08:36:28;98269.19;;;25.41;46.24
21300;BME280;10809;49.476;11.016;2022-08-01T08:39:05;98275.94;;;25.45;46.11
21300;BME280;10809;49.476;11.016;2022-08-01T08:41:39;98277.78;;;25.44;45.43
21300;BME280;10809;49.476;11.016;2022-08-01T08:44:17;98279.38;;;25.39;45.55
21300;BME280;10809;49.476;11.016;2022-08-01T08:46:51;98277.38;;;25.33;45.37
21300;BME280;10809;49.476;11.016;2022-08-01T08:49:24;98283.50;;;25.27;45.06
21300;BME280;10809;49.476;11.016;2022-08-01T08:52:00;98273.56;;;25.19;45.15
21300;BME280;10809;49.476;11.016;2022-08-01T08:54:31;98282.88;;;25.17;45.60
21300;BME280;10809;49.476;11.016;2022-08-01T08:57:02;98273.06;;;25.16;45.72
21300;BME280;10809;49.476;11.016;2022-08-01T08:59:33;98278.97;;;25.19;45.89
21300;BME280;10809;49.476;11.016;2022-08-01T09:02:04;98280.78;;;25.27;46.11
21300;BME280;10809;49.476;11.016;2022-08-01T09:04:36;98266.84;;;25.38;45.88
21300;BME280;10809;49.476;11.016;2022-08-01T09:07:07;98269.16;;;25.49;45.79
21300;BME280;10809;49.476;11.016;2022-08-01T09:09:44;98281.44;;;25.59;45.42
21300;BME280;10809;49.476;11.016;2022-08-01T09:12:18;98280.38;;;25.68;45.19
21300;BME280;10809;49.476;11.016;2022-08-01T09:14:50;98280.00;;;25.71;44.81
21300;BME280;10809;49.476;11.016;2022-08-01T09:17:26;98287.31;;;25.71;44.65
21300;BME280;10809;49.476;11.016;2022-08-01T09:19:56;98287.88;;;25.66;44.09
21300;BME280;10809;49.476;11.016;2022-08-01T09:22:32;98287.91;;;25.58;44.31
21300;BME280;10809;49.476;11.016;2022-08-01T09:25:07;98285.25;;;25.50;43.95
21300;BME280;10809;49.476;11.016;2022-08-01T09:27:47;98288.53;;;25.38;43.89
21300;BME280;10809;49.476;11.016;2022-08-01T09:30:18;98289.09;;;25.25;43.85
21300;BME280;10809;49.476;11.016;2022-08-01T09:33:00;98294.25;;;25.12;44.12
21300;BME280;10809;49.476;11.016;2022-08-01T09:35:37;98290.06;;;25.02;44.72
21300;BME280;10809;49.476;11.016;2022-08-01T09:38:22;98284.34;;;24.97;45.07
21300;BME280;10809;49.476;11.016;2022-08-01T09:40:55;98281.09;;;25.01;45.27
21300;BME280;10809;49.476;11.016;2022-08-01T09:43:27;98285.81;;;25.07;45.09
21300;BME280;10809;49.476;11.016;2022-08-01T09:45:59;98288.81;;;25.12;44.92
21300;BME280;10809;49.476;11.016;2022-08-01T09:48:31;98284.75;;;25.16;44.32
21300;BME280;10809;49.476;11.016;2022-08-01T09:51:02;98301.47;;;25.20;44.47
21300;BME280;10809;49.476;11.016;2022-08-01T09:53:45;98289.97;;;25.26;44.37
21300;BME280;10809;49.476;11.016;2022-08-01T09:56:15;98287.34;;;25.32;44.40
21300;BME280;10809;49.476;11.016;2022-08-01T09:58:55;98279.38;;;25.39;44.29
21300;BME280;10809;49.476;11.016;2022-08-01T10:01:27;98271.53;;;25.44;44.24
21300;BME280;10809;49.476;11.016;2022-08-01T10:04:06;98271.88;;;25.49;44.31
21300;BME280;10809;49.476;11.016;2022-08-01T10:06:48;98267.25;;;25.57;43.94
21300;BME280;10809;49.476;11.016;2022-08-01T10:09:30;98269.34;;;25.70;43.49
21300;BME280;10809;49.476;11.016;2022-08-01T10:12:03;98273.16;;;25.83;42.84
21300;BME280;10809;49.476;11.016;2022-08-01T10:14:34;98264.38;;;25.96;42.80
21300;BME280;10809;49.476;11.016;2022-08-01T10:17:08;98273.16;;;26.06;43.18
21300;BME280;10809;49.476;11.016;2022-08-01T10:19:42;98261.56;;;26.12;42.28
21300;BME280;10809;49.476;11.016;2022-08-01T10:22:14;98264.72;;;26.15;41.93
21300;BME280;10809;49.476;11.016;2022-08-01T10:24:50;98264.09;;;26.13;41.89
21300;BME280;10809;49.476;11.016;2022-08-01T10:27:32;98257.50;;;26.08;42.24
21300;BME280;10809;49.476;11.016;2022-08-01T10:30:09;98263.00;;;26.00;42.34
21300;BME280;10809;49.476;11.016;2022-08-01T10:32:50;98262.69;;;25.95;42.36
21300;BME280;10809;49.476;11.016;2022-08-01T10:35:22;98261.22;;;25.92;42.37
21300;BME280;10809;49.476;11.016;2022-08-01T10:37:53;98256.59;;;25.93;42.29
21300;BME280;10809;49.476;11.016;2022-08-01T10:40:31;98252.16;;;26.00;42.70
21300;BME280;10809;49.476;11.016;2022-08-01T10:43:02;98244.78;;;26.08;42.47
21300;BME280;10809;49.476;11.016;2022-08-01T10:45:33;98241.81;;;26.18;42.04
21300;BME280;10809;49.476;11.016;2022-08-01T10:48:24;98245.09;;;26.28;42.57
21300;BME280;10809;49.476;11.016;2022-08-01T10:51:04;98250.44;;;26.36;42.12
21300;BME280;10809;49.476;11.016;2022-08-01T10:53:35;98240.34;;;26.44;42.24
21300;BME280;10809;49.476;11.016;2022-08-01T10:56:06;98236.31;;;26.55;42.05
21300;BME280;10809;49.476;11.016;2022-08-01T10:58:44;98234.00;;;26.67;41.96
21300;BME280;10809;49.476;11.016;2022-08-01T11:04:11;98250.56;;;26.86;41.38
21300;BME280;10809;49.476;11.016;2022-08-01T11:06:54;98243.72;;;26.90;40.88
21300;BME280;10809;49.476;11.016;2022-08-01T11:09:43;98243.53;;;26.92;40.67
21300;BME280;10809;49.476;11.016;2022-08-01T11:12:16;98244.09;;;26.87;40.73
21300;BME280;10809;49.476;11.016;2022-08-01T11:20:12;98235.22;;;26.79;40.97
21300;BME280;10809;49.476;11.016;2022-08-01T11:33:48;98230.59;;;26.94;40.26
21300;BME280;10809;49.476;11.016;2022-08-01T11:36:18;98233.31;;;26.94;39.61
21300;BME280;10809;49.476;11.016;2022-08-01T11:41:41;98225.16;;;26.94;39.88
21300;BME280;10809;49.476;11.016;2022-08-01T11:44:22;98223.13;;;26.96;40.46
21300;BME280;10809;49.476;11.016;2022-08-01T11:47:01;98225.25;;;27.00;40.07
21300;BME280;10809;49.476;11.016;2022-08-01T11:52:15;98226.56;;;27.04;39.64
21300;BME280;10809;49.476;11.016;2022-08-01T11:54:57;98224.88;;;27.03;39.50
21300;BME280;10809;49.476;11.016;2022-08-01T11:57:29;98227.59;;;27.03;39.12
21300;BME280;10809;49.476;11.016;2022-08-01T12:00:05;98220.44;;;27.02;39.17
21300;BME280;10809;49.476;11.016;2022-08-01T12:03:06;98229.00;;;26.99;39.33
21300;BME280;10809;49.476;11.016;2022-08-01T12:05:36;98228.16;;;26.99;39.37
21300;BME280;10809;49.476;11.016;2022-08-01T12:08:07;98218.50;;;26.96;39.33
21300;BME280;10809;49.476;11.016;2022-08-01T12:10:37;98219.72;;;26.94;38.99
21300;BME280;10809;49.476;11.016;2022-08-01T12:13:07;98220.97;;;26.91;39.30
21300;BME280;10809;49.476;11.016;2022-08-01T12:15:41;98213.19;;;26.88;39.31
21300;BME280;10809;49.476;11.016;2022-08-01T12:18:15;98212.16;;;26.89;39.92
21300;BME280;10809;49.476;11.016;2022-08-01T12:20:46;98205.94;;;26.95;39.94
21300;BME280;10809;49.476;11.016;2022-08-01T12:23:16;98206.84;;;27.02;39.56
21300;BME280;10809;49.476;11.016;2022-08-01T12:25:51;98210.13;;;27.12;39.58
21300;BME280;10809;49.476;11.016;2022-08-01T12:28:22;98207.97;;;27.22;39.06
21300;BME280;10809;49.476;11.016;2022-08-01T12:30:55;98198.00;;;27.29;39.64
21300;BME280;10809;49.476;11.016;2022-08-01T12:33:26;98204.56;;;27.35;38.81
21300;BME280;10809;49.476;11.016;2022-08-01T12:35:56;98212.78;;;27.41;39.04
21300;BME280;10809;49.476;11.016;2022-08-01T12:38:27;98202.81;;;27.48;nan
21300;BME280;10809;49.476;11.016;2022-08-01T12:41:00;98198.25;;;27.55;38.89
21300;BME280;10809;49.476;11.016;2022-08-01T12:43:31;98206.09;;;27.65;38.37
21300;BME280;10809;49.476;11.016;2022-08-01T12:46:02;98192.22;;;27.74;38.61
21300;BME280;10809;49.476;11.016;2022-08-01T12:48:32;98194.78;;;27.82;37.73
21300;BME280;10809;49.476;11.016;2022-08-01T12:51:03;98200.72;;;27.92;37.53
21300;BME280;10809;49.476;11.016;2022-08-01T12:53:34;98187.19;;;27.99;37.32
21300;BME280;10809;49.476;11.016;2022-08-01T12:56:09;98184.09;;;28.08;36.94
21300;BME280;10809;49.476;11.016;2022-08-01T12:58:40;98188.72;;;28.15;36.98
21300;BME280;10809;49.476;11.016;2022-08-01T13:01:11;98195.09;;;28.22;36.87
21300;BME280;10809;49.476;11.016;2022-08-01T13:03:57;98190.91;;;28.26;37.25
21300;BME280;10809;49.476;11.016;2022-08-01T13:06:34;98198.03;;;28.27;37.20
21300;BME280;10809;49.476;11.016;2022-08-01T13:09:06;98206.59;;;28.24;37.14
21300;BME280;10809;49.476;11.016;2022-08-01T13:11:41;98201.94;;;28.18;36.83
21300;BME280;10809;49.476;11.016;2022-08-01T13:14:26;98198.75;;;28.08;37.37
21300;BME280;10809;49.476;11.016;2022-08-01T13:16:57;98196.16;;;27.99;36.67
21300;BME280;10809;49.476;11.016;2022-08-01T13:19:45;98199.88;;;27.92;37.37
21300;BME280;10809;49.476;11.016;2022-08-01T13:22:17;98183.72;;;27.84;37.37
21300;BME280;10809;49.476;11.016;2022-08-01T13:24:47;98182.59;;;27.78;37.19
21300;BME280;10809;49.476;11.016;2022-08-01T13:27:21;98174.13;;;27.73;37.10
21300;BME280;10809;49.476;11.016;2022-08-01T13:29:53;98174.53;;;27.70;37.45
21300;BME280;10809;49.476;11.016;2022-08-01T13:32:24;98173.25;;;27.66;37.31
21300;BME280;10809;49.476;11.016;2022-08-01T13:35:05;98174.69;;;27.62;37.49
21300;BME280;10809;49.476;11.016;2022-08-01T13:37:36;98178.63;;;27.60;37.22
21300;BME280;10809;49.476;11.016;2022-08-01T13:40:08;98182.78;;;27.56;37.50
21300;BME280;10809;49.476;11.016;2022-08-01T13:42:39;98172.28;;;27.53;37.27
21300;BME280;10809;49.476;11.016;2022-08-01T13:45:12;98177.94;;;27.51;37.88
21300;BME280;10809;49.476;11.016;2022-08-01T13:47:43;98167.44;;;27.48;37.69
21300;BME280;10809;49.476;11.016;2022-08-01T13:50:13;98167.44;;;27.48;37.47
21300;BME280;10809;49.476;11.016;2022-08-01T13:52:44;98158.44;;;27.48;37.67
21300;BME280;10809;49.476;11.016;2022-08-01T13:55:15;98159.28;;;27.48;37.63
21300;BME280;10809;49.476;11.016;2022-08-01T13:57:48;98165.19;;;27.52;37.37